sensor_id;sensor_type;location;lat;lon;timestamp;pressure;altitude;pressure_sealevel;temperature;humidity
78444;BME280;67739;52.986;8.894;2023-08-24T00:00:48;101929.41;;;20.52;63.19
78444;BME280;67739;52.986;8.894;2023-08-24T00:03:13;101937.06;;;20.47;63.58
78444;BME280;67739;52.986;8.894;2023-08-24T00:05:38;101931.81;;;20.44;63.33
78444;BME280;67739;52.986;8.894;2023-08-24T00:08:06;101927.66;;;20.38;63.45
78444;BME280;67739;52.986;8.894;2023-08-24T00:10:31;101933.28;;;20.35;63.63
78444;BME280;67739;52.986;8.894;2023-08-24T00:12:57;101930.91;;;20.31;63.58
78444;BME280;67739;52.986;8.894;2023-08-24T00:15:22;101933.97;;;20.26;63.54
78444;BME280;67739;52.986;8.894;2023-08-24T00:17:47;101940.69;;;20.21;63.80
78444;BME280;67739;52.986;8.894;2023-08-24T00:20:13;101934.63;;;20.17;63.81
78444;BME280;67739;52.986;8.894;2023-08-24T00:22:39;101937.66;;;20.12;64.07
78444;BME280;67739;52.986;8.894;2023-08-24T00:25:06;101931.66;;;20.07;63.88
78444;BME280;67739;52.986;8.894;2023-08-24T00:27:32;101932.88;;;20.03;63.81
78444;BME280;67739;52.986;8.894;2023-08-24T00:29:57;101923.25;;;19.98;63.90
78444;BME280;67739;52.986;8.894;2023-08-24T00:32:22;101923.56;;;19.93;63.94
78444;BME280;67739;52.986;8.894;2023-08-24T00:34:48;101927.50;;;19.89;64.33
78444;BME280;67739;52.986;8.894;2023-08-24T00:37:13;101924.22;;;19.84;63.96
78444;BME280;67739;52.986;8.894;2023-08-24T00:39:38;101929.09;;;19.79;64.42
78444;BME280;67739;52.986;8.894;2023-08-24T00:42:04;101921.25;;;19.74;64.15
78444;BME280;67739;52.986;8.894;2023-08-24T00:44:30;101916.13;;;19.70;64.64
78444;BME280;67739;52.986;8.894;2023-08-24T00:46:57;101910.09;;;19.65;64.05
78444;BME280;67739;52.986;8.894;2023-08-24T00:49:22;101914.03;;;19.61;64.63
78444;BME280;67739;52.986;8.894;2023-08-24T00:51:48;101917.06;;;19.56;64.41
78444;BME280;67739;52.986;8.894;2023-08-24T00:54:13;101923.69;;;19.52;64.54
78444;BME280;67739;52.986;8.894;2023-08-24T00:56:39;101926.72;;;19.48;64.64
78444;BME280;67739;52.986;8.894;2023-08-24T00:59:05;101926.13;;;19.42;64.86
78444;BME280;67739;52.986;8.894;2023-08-24T01:01:30;101938.19;;;19.38;64.67
78444;BME280;67739;52.986;8.894;2023-08-24T01:03:56;101934.91;;;19.33;64.81
78444;BME280;67739;52.986;8.894;2023-08-24T01:06:21;101926.09;;;19.30;65.08
78444;BME280;67739;52.986;8.894;2023-08-24T01:08:47;101934.53;;;19.25;64.88
78444;BME280;67739;52.986;8.894;2023-08-24T01:11:21;101928.53;;;19.20;65.10
78444;BME280;67739;52.986;8.894;2023-08-24T01:14:11;101933.31;;;19.17;65.13
78444;BME280;67739;52.986;8.894;2023-08-24T01:16:43;101930.03;;;19.12;65.41
78444;BME280;67739;52.986;8.894;2023-08-24T01:19:22;101930.31;;;19.07;65.26
78444;BME280;67739;52.986;8.894;2023-08-24T01:21:51;101929.75;;;19.02;65.47
78444;BME280;67739;52.986;8.894;2023-08-24T01:24:28;101921.03;;;18.97;65.39
78444;BME280;67739;52.986;8.894;2023-08-24T01:26:56;101927.63;;;18.93;65.17
78444;BME280;67739;52.986;8.894;2023-08-24T01:29:22;101912.50;;;18.89;65.17
78444;BME280;67739;52.986;8.894;2023-08-24T01:31:48;101923.66;;;18.84;65.33
78444;BME280;67739;52.986;8.894;2023-08-24T01:34:14;101924.81;;;18.80;65.39
78444;BME280;67739;52.986;8.894;2023-08-24T01:36:40;101926.00;;;18.76;65.57
78444;BME280;67739;52.986;8.894;2023-08-24T01:39:12;101921.84;;;18.70;65.83
78444;BME280;67739;52.986;8.894;2023-08-24T01:41:40;101920.28;;;18.66;65.67
78444;BME280;67739;52.986;8.894;2023-08-24T01:44:12;101920.56;;;18.62;65.90
78444;BME280;67739;52.986;8.894;2023-08-24T01:46:39;101920.78;;;18.59;65.50
78444;BME280;67739;52.986;8.894;2023-08-24T01:49:07;101924.72;;;18.53;65.84
78444;BME280;67739;52.986;8.894;2023-08-24T01:51:34;101926.75;;;18.50;66.10
78444;BME280;67739;52.986;8.894;2023-08-24T01:54:00;101922.50;;;18.46;66.02
78444;BME280;67739;52.986;8.894;2023-08-24T01:56:25;101920.94;;;18.42;66.12
78444;BME280;67739;52.986;8.894;2023-08-24T01:58:51;101923.94;;;18.37;66.04
78444;BME280;67739;52.986;8.894;2023-08-24T02:01:16;101918.69;;;18.34;66.26
78444;BME280;67739;52.986;8.894;2023-08-24T02:03:41;101913.56;;;18.29;65.88
78444;BME280;67739;52.986;8.894;2023-08-24T02:06:07;101909.28;;;18.25;65.96
78444;BME280;67739;52.986;8.894;2023-08-24T02:08:33;101913.16;;;18.21;66.14
78444;BME280;67739;52.986;8.894;2023-08-24T02:10:58;101912.50;;;18.18;66.51
78444;BME280;67739;52.986;8.894;2023-08-24T02:13:24;101910.94;;;18.14;66.12
78444;BME280;67739;52.986;8.894;2023-08-24T02:15:49;101898.50;;;18.10;66.52
78444;BME280;67739;52.986;8.894;2023-08-24T02:18:14;101896.06;;;18.05;66.42
78444;BME280;67739;52.986;8.894;2023-08-24T02:20:40;101904.44;;;18.02;66.42
78444;BME280;67739;52.986;8.894;2023-08-24T02:23:05;101899.25;;;17.97;66.36
78444;BME280;67739;52.986;8.894;2023-08-24T02:25:31;101903.13;;;17.93;66.41
78444;BME280;67739;52.986;8.894;2023-08-24T02:27:57;101902.44;;;17.90;66.40
78444;BME280;67739;52.986;8.894;2023-08-24T02:30:22;101893.63;;;17.86;66.40
78444;BME280;67739;52.986;8.894;2023-08-24T02:32:47;101890.31;;;17.81;66.65
78444;BME280;67739;52.986;8.894;2023-08-24T02:35:13;101900.47;;;17.78;66.31
78444;BME280;67739;52.986;8.894;2023-08-24T02:37:38;101889.03;;;17.73;66.48
78444;BME280;67739;52.986;8.894;2023-08-24T02:40:04;101891.94;;;17.70;66.44
78444;BME280;67739;52.986;8.894;2023-08-24T02:42:31;101886.78;;;17.65;66.58
78444;BME280;67739;52.986;8.894;2023-08-24T02:44:57;101885.16;;;17.61;66.98
78444;BME280;67739;52.986;8.894;2023-08-24T02:47:23;101892.66;;;17.57;66.73
78444;BME280;67739;52.986;8.894;2023-08-24T02:49:48;101883.81;;;17.54;66.89
78444;BME280;67739;52.986;8.894;2023-08-24T02:52:14;101871.38;;;17.50;67.07
78444;BME280;67739;52.986;8.894;2023-08-24T02:54:39;101876.09;;;17.46;66.74
78444;BME280;67739;52.986;8.894;2023-08-24T02:57:04;101872.81;;;17.41;66.93
78444;BME280;67739;52.986;8.894;2023-08-24T02:59:30;101867.56;;;17.38;67.20
78444;BME280;67739;52.986;8.894;2023-08-24T03:01:55;101858.72;;;17.35;67.21
78444;BME280;67739;52.986;8.894;2023-08-24T03:04:21;101849.06;;;17.30;67.28
78444;BME280;67739;52.986;8.894;2023-08-24T03:06:47;101849.22;;;17.27;67.12
78444;BME280;67739;52.986;8.894;2023-08-24T03:09:12;101848.53;;;17.24;67.14
78444;BME280;67739;52.986;8.894;2023-08-24T03:11:37;101847.81;;;17.20;67.38
78444;BME280;67739;52.986;8.894;2023-08-24T03:14:03;101851.59;;;17.18;67.51
78444;BME280;67739;52.986;8.894;2023-08-24T03:16:29;101859.94;;;17.15;67.41
78444;BME280;67739;52.986;8.894;2023-08-24T03:18:54;101845.66;;;17.11;67.61
78444;BME280;67739;52.986;8.894;2023-08-24T03:21:20;101848.56;;;17.08;67.52
78444;BME280;67739;52.986;8.894;2023-08-24T03:23:45;101848.72;;;17.05;67.63
78444;BME280;67739;52.986;8.894;2023-08-24T03:26:10;101846.22;;;17.02;67.71
78444;BME280;67739;52.986;8.894;2023-08-24T03:28:35;101847.28;;;17.00;68.11
78444;BME280;67739;52.986;8.894;2023-08-24T03:31:01;101848.31;;;16.97;68.07
78444;BME280;67739;52.986;8.894;2023-08-24T03:33:26;101842.97;;;16.95;68.07
78444;BME280;67739;52.986;8.894;2023-08-24T03:35:53;101837.72;;;16.92;68.03
78444;BME280;67739;52.986;8.894;2023-08-24T03:38:18;101839.66;;;16.90;68.01
78444;BME280;67739;52.986;8.894;2023-08-24T03:40:43;101848.84;;;16.88;68.29
78444;BME280;67739;52.986;8.894;2023-08-24T03:43:09;101874.28;;;16.85;68.33
78444;BME280;67739;52.986;8.894;2023-08-24T03:45:34;101879.78;;;16.84;68.47
78444;BME280;67739;52.986;8.894;2023-08-24T03:47:59;101885.31;;;16.82;68.53
78444;BME280;67739;52.986;8.894;2023-08-24T03:50:25;101875.50;;;16.80;68.19
78444;BME280;67739;52.986;8.894;2023-08-24T03:52:51;101861.06;;;16.79;68.64
78444;BME280;67739;52.986;8.894;2023-08-24T03:55:17;101870.25;;;16.77;68.48
78444;BME280;67739;52.986;8.894;2023-08-24T03:57:42;101862.22;;;16.75;68.83
78444;BME280;67739;52.986;8.894;2023-08-24T04:00:08;101863.28;;;16.73;68.57
78444;BME280;67739;52.986;8.894;2023-08-24T04:02:38;101867.81;;;16.72;68.75
78444;BME280;67739;52.986;8.894;2023-08-24T04:05:03;101875.16;;;16.70;68.70
78444;BME280;67739;52.986;8.894;2023-08-24T04:07:29;101888.78;;;16.69;68.68
78444;BME280;67739;52.986;8.894;2023-08-24T04:09:54;101883.47;;;16.67;69.11
78444;BME280;67739;52.986;8.894;2023-08-24T04:12:20;101875.41;;;16.66;69.02
78444;BME280;67739;52.986;8.894;2023-08-24T04:14:45;101877.25;;;16.65;69.14
78444;BME280;67739;52.986;8.894;2023-08-24T04:17:10;101879.09;;;16.65;69.09
78444;BME280;67739;52.986;8.894;2023-08-24T04:19:37;101884.63;;;16.61;68.93
78444;BME280;67739;52.986;8.894;2023-08-24T04:22:03;101890.06;;;16.61;69.25
78444;BME280;67739;52.986;8.894;2023-08-24T04:24:28;101889.19;;;16.61;68.98
78444;BME280;67739;52.986;8.894;2023-08-24T04:26:54;101876.59;;;16.60;68.95
78444;BME280;67739;52.986;8.894;2023-08-24T04:29:19;101875.72;;;16.59;69.04
78444;BME280;67739;52.986;8.894;2023-08-24T04:31:44;101874.00;;;16.58;69.25
78444;BME280;67739;52.986;8.894;2023-08-24T04:34:10;101867.69;;;16.58;68.90
78444;BME280;67739;52.986;8.894;2023-08-24T04:36:36;101867.69;;;16.58;69.08
78444;BME280;67739;52.986;8.894;2023-08-24T04:39:02;101871.38;;;16.57;68.99
78444;BME280;67739;52.986;8.894;2023-08-24T04:41:27;101870.50;;;16.56;69.31
78444;BME280;67739;52.986;8.894;2023-08-24T04:43:52;101862.38;;;16.56;69.24
78444;BME280;67739;52.986;8.894;2023-08-24T04:46:18;101865.06;;;16.56;69.16
78444;BME280;67739;52.986;8.894;2023-08-24T04:48:43;101866.91;;;16.56;68.97
78444;BME280;67739;52.986;8.894;2023-08-24T04:51:08;101869.63;;;16.56;69.56
78444;BME280;67739;52.986;8.894;2023-08-24T04:53:34;101864.19;;;16.56;69.40
78444;BME280;67739;52.986;8.894;2023-08-24T04:55:59;101861.50;;;16.56;69.21
78444;BME280;67739;52.986;8.894;2023-08-24T04:58:24;101866.91;;;16.56;69.45
78444;BME280;67739;52.986;8.894;2023-08-24T05:00:50;101875.03;;;16.56;69.11
78444;BME280;67739;52.986;8.894;2023-08-24T05:03:16;101869.69;;;16.54;69.09
78444;BME280;67739;52.986;8.894;2023-08-24T05:05:41;101866.91;;;16.56;69.10
78444;BME280;67739;52.986;8.894;2023-08-24T05:08:07;101877.75;;;16.56;69.55
78444;BME280;67739;52.986;8.894;2023-08-24T05:10:35;101875.13;;;16.54;69.58
78444;BME280;67739;52.986;8.894;2023-08-24T05:13:00;101872.41;;;16.54;69.20
78444;BME280;67739;52.986;8.894;2023-08-24T05:15:26;101872.41;;;16.54;69.09
78444;BME280;67739;52.986;8.894;2023-08-24T05:17:52;101866.09;;;16.54;69.13
78444;BME280;67739;52.986;8.894;2023-08-24T05:20:20;101877.81;;;16.54;69.17
78444;BME280;67739;52.986;8.894;2023-08-24T05:22:46;101880.53;;;16.54;69.55
78444;BME280;67739;52.986;8.894;2023-08-24T05:25:11;101891.38;;;16.54;69.19
78444;BME280;67739;52.986;8.894;2023-08-24T05:27:37;101890.50;;;16.54;69.37
78444;BME280;67739;52.986;8.894;2023-08-24T05:30:03;101886.91;;;16.53;69.20
78444;BME280;67739;52.986;8.894;2023-08-24T05:32:29;101884.19;;;16.53;69.59
78444;BME280;67739;52.986;8.894;2023-08-24T05:34:54;101882.44;;;16.52;69.37
78444;BME280;67739;52.986;8.894;2023-08-24T05:37:19;101884.28;;;16.52;69.45
78444;BME280;67739;52.986;8.894;2023-08-24T05:39:44;101882.44;;;16.52;69.38
78444;BME280;67739;52.986;8.894;2023-08-24T05:42:10;101895.91;;;16.54;69.76
78444;BME280;67739;52.986;8.894;2023-08-24T05:44:35;101885.94;;;16.54;69.58
78444;BME280;67739;52.986;8.894;2023-08-24T05:47:00;101883.25;;;16.54;69.60
78444;BME280;67739;52.986;8.894;2023-08-24T05:49:26;101872.41;;;16.54;69.86
78444;BME280;67739;52.986;8.894;2023-08-24T05:51:52;101872.31;;;16.56;69.87
78444;BME280;67739;52.986;8.894;2023-08-24T05:54:17;101865.06;;;16.56;70.00
78444;BME280;67739;52.986;8.894;2023-08-24T05:56:44;101867.78;;;16.56;69.76
78444;BME280;67739;52.986;8.894;2023-08-24T05:59:09;101860.53;;;16.57;70.01
78444;BME280;67739;52.986;8.894;2023-08-24T06:01:35;101877.66;;;16.57;69.95
78444;BME280;67739;52.986;8.894;2023-08-24T06:04:04;101875.81;;;16.58;70.15
78444;BME280;67739;52.986;8.894;2023-08-24T06:06:29;101871.16;;;16.60;70.14
78444;BME280;67739;52.986;8.894;2023-08-24T06:08:55;101866.53;;;16.62;70.53
78444;BME280;67739;52.986;8.894;2023-08-24T06:11:20;101862.91;;;16.63;70.66
78444;BME280;67739;52.986;8.894;2023-08-24T06:13:45;101863.69;;;16.65;70.66
78444;BME280;67739;52.986;8.894;2023-08-24T06:16:11;101855.41;;;16.68;71.02
78444;BME280;67739;52.986;8.894;2023-08-24T06:18:36;101852.63;;;16.70;71.12
78444;BME280;67739;52.986;8.894;2023-08-24T06:21:01;101851.56;;;16.72;71.21
78444;BME280;67739;52.986;8.894;2023-08-24T06:23:27;101854.16;;;16.74;71.34
78444;BME280;67739;52.986;8.894;2023-08-24T06:25:52;101863.97;;;16.76;71.66
78444;BME280;67739;52.986;8.894;2023-08-24T06:28:17;101850.31;;;16.78;71.63
78444;BME280;67739;52.986;8.894;2023-08-24T06:30:43;101848.41;;;16.80;71.94
78444;BME280;67739;52.986;8.894;2023-08-24T06:33:09;101841.06;;;16.82;71.83
78444;BME280;67739;52.986;8.894;2023-08-24T06:35:36;101848.16;;;16.84;72.01
78444;BME280;67739;52.986;8.894;2023-08-24T06:38:02;101844.41;;;16.87;71.92
78444;BME280;67739;52.986;8.894;2023-08-24T06:40:28;101841.47;;;16.90;72.24
78444;BME280;67739;52.986;8.894;2023-08-24T06:42:54;101844.09;;;16.91;72.21
78444;BME280;67739;52.986;8.894;2023-08-24T06:45:19;101833.09;;;16.94;72.09
78444;BME280;67739;52.986;8.894;2023-08-24T06:47:45;101836.50;;;16.98;72.64
78444;BME280;67739;52.986;8.894;2023-08-24T06:50:10;101833.50;;;17.03;72.21
78444;BME280;67739;52.986;8.894;2023-08-24T06:52:35;101822.56;;;17.04;72.13
78444;BME280;67739;52.986;8.894;2023-08-24T06:55:01;101821.44;;;17.08;72.68
78444;BME280;67739;52.986;8.894;2023-08-24T06:57:26;101821.25;;;17.11;72.41
78444;BME280;67739;52.986;8.894;2023-08-24T06:59:52;101821.97;;;17.15;72.49
78444;BME280;67739;52.986;8.894;2023-08-24T07:02:17;101820.78;;;17.19;72.71
78444;BME280;67739;52.986;8.894;2023-08-24T07:04:43;101812.41;;;17.23;72.72
78444;BME280;67739;52.986;8.894;2023-08-24T07:07:09;101814.94;;;17.26;72.83
78444;BME280;67739;52.986;8.894;2023-08-24T07:09:35;101810.09;;;17.31;72.69
78444;BME280;67739;52.986;8.894;2023-08-24T07:12:01;101802.66;;;17.35;72.56
78444;BME280;67739;52.986;8.894;2023-08-24T07:14:27;101805.97;;;17.40;72.63
78444;BME280;67739;52.986;8.894;2023-08-24T07:16:52;101810.13;;;17.46;72.90
78444;BME280;67739;52.986;8.894;2023-08-24T07:19:17;101812.47;;;17.52;72.85
78444;BME280;67739;52.986;8.894;2023-08-24T07:21:42;101810.47;;;17.55;72.36
78444;BME280;67739;52.986;8.894;2023-08-24T07:24:08;101801.03;;;17.61;72.32
78444;BME280;67739;52.986;8.894;2023-08-24T07:26:33;101798.88;;;17.67;72.64
78444;BME280;67739;52.986;8.894;2023-08-24T07:28:59;101794.06;;;17.73;72.62
78444;BME280;67739;52.986;8.894;2023-08-24T07:31:24;101797.16;;;17.81;72.53
78444;BME280;67739;52.986;8.894;2023-08-24T07:33:50;101791.25;;;17.88;72.49
78444;BME280;67739;52.986;8.894;2023-08-24T07:36:15;101786.19;;;17.96;72.65
78444;BME280;67739;52.986;8.894;2023-08-24T07:38:41;101786.56;;;18.05;73.03
78444;BME280;67739;52.986;8.894;2023-08-24T07:41:06;101779.69;;;18.13;72.97
78444;BME280;67739;52.986;8.894;2023-08-24T07:43:32;101781.91;;;18.21;72.62
78444;BME280;67739;52.986;8.894;2023-08-24T07:45:58;101782.31;;;18.29;72.58
78444;BME280;67739;52.986;8.894;2023-08-24T07:48:23;101776.34;;;18.36;72.66
78444;BME280;67739;52.986;8.894;2023-08-24T07:50:51;101781.94;;;18.48;72.89
78444;BME280;67739;52.986;8.894;2023-08-24T07:53:17;101784.97;;;18.57;72.30
78444;BME280;67739;52.986;8.894;2023-08-24T07:55:42;101787.09;;;18.66;72.62
78444;BME280;67739;52.986;8.894;2023-08-24T07:58:08;101784.63;;;18.76;72.29
78444;BME280;67739;52.986;8.894;2023-08-24T08:00:33;101768.59;;;18.86;72.06
78444;BME280;67739;52.986;8.894;2023-08-24T08:02:59;101772.41;;;18.96;72.28
78444;BME280;67739;52.986;8.894;2023-08-24T08:05:25;101765.38;;;19.06;71.72
78444;BME280;67739;52.986;8.894;2023-08-24T08:07:50;101766.50;;;19.16;71.55
78444;BME280;67739;52.986;8.894;2023-08-24T08:10:15;101763.91;;;19.27;71.49
78444;BME280;67739;52.986;8.894;2023-08-24T08:12:42;101766.75;;;19.38;71.04
78444;BME280;67739;52.986;8.894;2023-08-24T08:15:08;101762.41;;;19.49;71.11
78444;BME280;67739;52.986;8.894;2023-08-24T08:17:33;101757.91;;;19.62;70.96
78444;BME280;67739;52.986;8.894;2023-08-24T08:19:59;101758.88;;;19.73;70.60
78444;BME280;67739;52.986;8.894;2023-08-24T08:22:24;101763.44;;;19.86;70.70
78444;BME280;67739;52.986;8.894;2023-08-24T08:24:51;101761.69;;;19.97;70.62
78444;BME280;67739;52.986;8.894;2023-08-24T08:27:16;101754.25;;;20.12;70.12
78444;BME280;67739;52.986;8.894;2023-08-24T08:29:41;101755.09;;;20.25;69.91
78444;BME280;67739;52.986;8.894;2023-08-24T08:32:08;101756.84;;;20.39;69.83
78444;BME280;67739;52.986;8.894;2023-08-24T08:34:33;101754.06;;;20.52;69.58
78444;BME280;67739;52.986;8.894;2023-08-24T08:36:58;101750.28;;;20.65;68.93
78444;BME280;67739;52.986;8.894;2023-08-24T08:39:24;101750.13;;;20.79;68.81
78444;BME280;67739;52.986;8.894;2023-08-24T08:41:49;101751.69;;;20.95;68.52
78444;BME280;67739;52.986;8.894;2023-08-24T08:44:15;101746.78;;;21.11;68.51
78444;BME280;67739;52.986;8.894;2023-08-24T08:46:42;101750.22;;;21.26;68.02
78444;BME280;67739;52.986;8.894;2023-08-24T08:49:07;101745.44;;;21.40;67.49
78444;BME280;67739;52.986;8.894;2023-08-24T08:51:36;101753.16;;;21.58;67.42
78444;BME280;67739;52.986;8.894;2023-08-24T08:54:02;101751.94;;;21.73;67.18
78444;BME280;67739;52.986;8.894;2023-08-24T08:56:29;101752.69;;;21.86;66.58
78444;BME280;67739;52.986;8.894;2023-08-24T08:58:56;101753.38;;;22.01;66.18
78444;BME280;67739;52.986;8.894;2023-08-24T09:01:24;101751.25;;;22.15;66.10
78444;BME280;67739;52.986;8.894;2023-08-24T09:03:49;101752.72;;;22.31;65.61
78444;BME280;67739;52.986;8.894;2023-08-24T09:06:16;101744.25;;;22.45;65.14
78444;BME280;67739;52.986;8.894;2023-08-24T09:08:41;101750.44;;;22.58;64.59
78444;BME280;67739;52.986;8.894;2023-08-24T09:11:08;101742.81;;;22.73;64.63
78444;BME280;67739;52.986;8.894;2023-08-24T09:13:33;101741.69;;;22.86;63.97
78444;BME280;67739;52.986;8.894;2023-08-24T09:16:06;101743.22;;;23.00;63.69
78444;BME280;67739;52.986;8.894;2023-08-24T09:18:39;101740.44;;;23.11;63.34
78444;BME280;67739;52.986;8.894;2023-08-24T09:21:12;101718.50;;;23.22;62.86
78444;BME280;67739;52.986;8.894;2023-08-24T09:23:43;101709.22;;;23.35;62.86
78444;BME280;67739;52.986;8.894;2023-08-24T09:26:10;101697.19;;;23.47;62.34
78444;BME280;67739;52.986;8.894;2023-08-24T09:28:35;101694.53;;;23.56;61.79
78444;BME280;67739;52.986;8.894;2023-08-24T09:31:01;101704.69;;;23.66;61.59
78444;BME280;67739;52.986;8.894;2023-08-24T09:33:28;101711.06;;;23.76;61.03
78444;BME280;67739;52.986;8.894;2023-08-24T09:35:54;101704.75;;;23.85;60.88
78444;BME280;67739;52.986;8.894;2023-08-24T09:38:27;101690.25;;;23.94;60.45
78444;BME280;67739;52.986;8.894;2023-08-24T09:40:54;101680.31;;;24.03;60.16
78444;BME280;67739;52.986;8.894;2023-08-24T09:43:21;101681.47;;;24.10;60.14
78444;BME280;67739;52.986;8.894;2023-08-24T09:45:55;101668.81;;;24.18;59.62
78444;BME280;67739;52.986;8.894;2023-08-24T09:48:21;101666.25;;;24.26;59.64
78444;BME280;67739;52.986;8.894;2023-08-24T09:50:48;101659.22;;;24.34;58.85
78444;BME280;67739;52.986;8.894;2023-08-24T09:53:21;101662.09;;;24.42;58.92
78444;BME280;67739;52.986;8.894;2023-08-24T09:56:00;101653.16;;;24.49;58.59
78444;BME280;67739;52.986;8.894;2023-08-24T09:58:27;101645.94;;;24.58;58.31
78444;BME280;67739;52.986;8.894;2023-08-24T10:00:52;101647.97;;;24.65;58.33
78444;BME280;67739;52.986;8.894;2023-08-24T10:03:23;101640.75;;;24.74;58.03
78444;BME280;67739;52.986;8.894;2023-08-24T10:05:53;101624.25;;;24.84;57.96
78444;BME280;67739;52.986;8.894;2023-08-24T10:08:22;101630.66;;;24.94;57.57
78444;BME280;67739;52.986;8.894;2023-08-24T10:10:53;101632.50;;;25.03;57.57
78444;BME280;67739;52.986;8.894;2023-08-24T10:13:26;101626.84;;;25.14;57.46
78444;BME280;67739;52.986;8.894;2023-08-24T10:15:52;101634.91;;;25.25;56.99
78444;BME280;67739;52.986;8.894;2023-08-24T10:18:19;101623.63;;;25.38;56.86
78444;BME280;67739;52.986;8.894;2023-08-24T10:20:45;101619.66;;;25.50;56.62
78444;BME280;67739;52.986;8.894;2023-08-24T10:23:12;101609.22;;;25.63;56.47
78444;BME280;67739;52.986;8.894;2023-08-24T10:25:39;101613.34;;;25.77;56.63
78444;BME280;67739;52.986;8.894;2023-08-24T10:28:07;101614.00;;;25.89;56.04
78444;BME280;67739;52.986;8.894;2023-08-24T10:30:35;101622.75;;;26.02;55.97
78444;BME280;67739;52.986;8.894;2023-08-24T10:33:01;101611.22;;;26.16;56.28
78444;BME280;67739;52.986;8.894;2023-08-24T10:35:27;101598.56;;;26.33;56.32
78444;BME280;67739;52.986;8.894;2023-08-24T10:37:53;101595.97;;;26.49;56.68
78444;BME280;67739;52.986;8.894;2023-08-24T10:40:32;101581.34;;;26.66;56.50
78444;BME280;67739;52.986;8.894;2023-08-24T10:42:57;101574.06;;;26.83;56.52
78444;BME280;67739;52.986;8.894;2023-08-24T10:45:23;101575.94;;;27.00;56.83
78444;BME280;67739;52.986;8.894;2023-08-24T10:47:52;101576.75;;;27.19;56.77
78444;BME280;67739;52.986;8.894;2023-08-24T10:50:19;101579.59;;;27.35;57.27
78444;BME280;67739;52.986;8.894;2023-08-24T10:52:44;101575.91;;;27.52;56.96
78444;BME280;67739;52.986;8.894;2023-08-24T10:55:26;101569.13;;;27.72;57.70
78444;BME280;67739;52.986;8.894;2023-08-24T10:57:59;101568.16;;;27.90;57.22
78444;BME280;67739;52.986;8.894;2023-08-24T11:00:27;101566.31;;;28.06;57.28
78444;BME280;67739;52.986;8.894;2023-08-24T11:02:52;101565.16;;;28.25;57.35
78444;BME280;67739;52.986;8.894;2023-08-24T11:05:28;101554.81;;;28.43;57.41
78444;BME280;67739;52.986;8.894;2023-08-24T11:08:03;101544.47;;;28.62;57.93
78444;BME280;67739;52.986;8.894;2023-08-24T11:10:45;101545.88;;;28.82;57.96
78444;BME280;67739;52.986;8.894;2023-08-24T11:15:40;101544.94;;;29.22;58.80
78444;BME280;67739;52.986;8.894;2023-08-24T11:18:25;101533.34;;;29.43;59.22
78444;BME280;67739;52.986;8.894;2023-08-24T11:21:01;101519.91;;;29.63;59.36
78444;BME280;67739;52.986;8.894;2023-08-24T11:23:27;101524.16;;;29.81;59.82
78444;BME280;67739;52.986;8.894;2023-08-24T11:25:55;101516.66;;;29.98;59.75
78444;BME280;67739;52.986;8.894;2023-08-24T11:28:31;101509.09;;;30.15;59.93
78444;BME280;67739;52.986;8.894;2023-08-24T11:30:58;101501.50;;;30.32;59.86
78444;BME280;67739;52.986;8.894;2023-08-24T11:33:31;101497.75;;;30.47;60.18
78444;BME280;67739;52.986;8.894;2023-08-24T11:35:58;101493.31;;;30.61;60.31
78444;BME280;67739;52.986;8.894;2023-08-24T11:38:24;101495.44;;;30.74;60.52
78444;BME280;67739;52.986;8.894;2023-08-24T11:40:50;101500.13;;;30.88;60.56
78444;BME280;67739;52.986;8.894;2023-08-24T11:43:27;101497.78;;;31.00;60.95
78444;BME280;67739;52.986;8.894;2023-08-24T11:45:54;101489.88;;;31.11;60.95
78444;BME280;67739;52.986;8.894;2023-08-24T11:48:24;101494.25;;;31.20;61.12
78444;BME280;67739;52.986;8.894;2023-08-24T11:50:50;101489.31;;;31.31;61.25
78444;BME280;67739;52.986;8.894;2023-08-24T11:53:16;101482.78;;;31.38;61.32
78444;BME280;67739;52.986;8.894;2023-08-24T11:55:42;101476.72;;;31.49;61.73
78444;BME280;67739;52.986;8.894;2023-08-24T11:58:13;101470.03;;;31.58;61.48
78444;BME280;67739;52.986;8.894;2023-08-24T12:00:39;101459.91;;;31.66;61.23
78444;BME280;67739;52.986;8.894;2023-08-24T12:03:04;101458.72;;;31.75;61.21
78444;BME280;67739;52.986;8.894;2023-08-24T12:05:29;101457.75;;;31.82;61.49
78444;BME280;67739;52.986;8.894;2023-08-24T12:07:55;101440.97;;;31.90;61.50
78444;BME280;67739;52.986;8.894;2023-08-24T12:10:21;101440.84;;;31.98;61.91
78444;BME280;67739;52.986;8.894;2023-08-24T12:12:47;101444.34;;;32.07;61.93
78444;BME280;67739;52.986;8.894;2023-08-24T12:15:16;101447.84;;;32.16;62.09
78444;BME280;67739;52.986;8.894;2023-08-24T12:17:43;101446.00;;;32.23;62.09
78444;BME280;67739;52.986;8.894;2023-08-24T12:20:17;101429.22;;;32.31;62.14
78444;BME280;67739;52.986;8.894;2023-08-24T12:22:43;101430.78;;;32.40;62.65
78444;BME280;67739;52.986;8.894;2023-08-24T12:25:08;101422.28;;;32.48;62.54
78444;BME280;67739;52.986;8.894;2023-08-24T12:27:33;101415.72;;;32.56;62.61
78444;BME280;67739;52.986;8.894;2023-08-24T12:30:02;101415.75;;;32.62;62.79
78444;BME280;67739;52.986;8.894;2023-08-24T12:32:45;101411.13;;;32.70;62.81
78444;BME280;67739;52.986;8.894;2023-08-24T12:35:11;101409.25;;;32.77;62.79
78444;BME280;67739;52.986;8.894;2023-08-24T12:37:36;101409.53;;;32.82;62.88
78444;BME280;67739;52.986;8.894;2023-08-24T12:40:03;101408.72;;;32.88;62.90
78444;BME280;67739;52.986;8.894;2023-08-24T12:42:30;101413.63;;;32.92;62.76
78444;BME280;67739;52.986;8.894;2023-08-24T12:44:56;101404.91;;;32.95;62.89
78444;BME280;67739;52.986;8.894;2023-08-24T12:47:21;101403.44;;;32.99;62.84
78444;BME280;67739;52.986;8.894;2023-08-24T12:49:47;101408.59;;;33.03;62.91